createdAt,value
2023-12-31T00:00:30.990Z,58.04
2023-12-31T00:05:34.700Z,58.44
2023-12-31T00:10:37.169Z,58.48
2023-12-31T00:15:39.520Z,59.12
2023-12-31T00:20:41.668Z,58.93
2023-12-31T00:25:44.017Z,58.81
2023-12-31T00:30:46.337Z,58.65
2023-12-31T00:35:49.299Z,58.74
2023-12-31T00:40:51.631Z,59.21
2023-12-31T00:45:53.904Z,59.05
2023-12-31T00:50:56.163Z,58.96
2023-12-31T00:55:58.326Z,58.52
2023-12-31T01:01:00.592Z,59.05
2023-12-31T01:06:09.285Z,59.01
2023-12-31T01:11:11.564Z,59.29
2023-12-31T01:16:13.846Z,58.95
2023-12-31T01:21:16.146Z,58.45
2023-12-31T01:26:18.399Z,58.57
2023-12-31T01:31:21.461Z,59.33
2023-12-31T01:36:26.598Z,59.40
2023-12-31T01:41:30.175Z,59.14
2023-12-31T01:46:33.626Z,58.86
2023-12-31T01:51:36.449Z,58.66
2023-12-31T01:56:41.011Z,59.13
2023-12-31T02:01:43.553Z,59.19
2023-12-31T02:06:45.810Z,59.28
2023-12-31T02:11:48.043Z,59.01
2023-12-31T02:16:50.696Z,58.81
2023-12-31T02:21:53.410Z,58.66
2023-12-31T02:26:55.738Z,58.59
2023-12-31T02:31:57.950Z,58.07
2023-12-31T02:37:00.190Z,58.22
2023-12-31T02:42:02.405Z,58.15
2023-12-31T02:47:04.925Z,57.73
2023-12-31T02:52:07.328Z,57.66
2023-12-31T02:57:09.637Z,57.91
2023-12-31T03:02:12.104Z,57.64
2023-12-31T03:07:14.795Z,58.28
2023-12-31T03:12:17.062Z,59.00
2023-12-31T03:17:19.293Z,59.43
2023-12-31T03:22:30.567Z,59.59
2023-12-31T03:27:40.803Z,58.52
2023-12-31T03:32:43.001Z,58.87
2023-12-31T03:37:48.590Z,58.84
2023-12-31T03:42:51.358Z,59.12
2023-12-31T03:47:53.602Z,59.23
2023-12-31T03:52:55.875Z,59.12
2023-12-31T03:57:58.076Z,59.04
2023-12-31T04:03:00.433Z,59.03
2023-12-31T04:08:02.729Z,59.04
2023-12-31T04:13:05.440Z,58.81
2023-12-31T04:18:07.911Z,58.92
2023-12-31T04:23:10.269Z,58.98
2023-12-31T04:28:12.600Z,58.86
2023-12-31T04:33:15.117Z,58.46
2023-12-31T04:38:17.388Z,58.20
2023-12-31T04:43:19.709Z,58.33
2023-12-31T04:48:22.074Z,58.29
2023-12-31T04:53:24.351Z,57.95
2023-12-31T04:58:26.555Z,57.58
2023-12-31T05:03:28.829Z,57.51
2023-12-31T05:08:31.114Z,58.26
2023-12-31T05:13:34.081Z,59.19
2023-12-31T05:18:36.470Z,58.33
2023-12-31T05:23:38.771Z,57.87
2023-12-31T05:28:41.547Z,58.39
2023-12-31T05:33:44.362Z,58.15
2023-12-31T05:38:46.671Z,58.40
2023-12-31T05:43:49.205Z,58.86
2023-12-31T05:48:51.630Z,59.04
2023-12-31T05:53:53.933Z,58.46
2023-12-31T05:58:56.433Z,59.19
2023-12-31T06:03:58.637Z,59.03
2023-12-31T06:09:00.904Z,59.08
2023-12-31T06:14:04.417Z,58.67
2023-12-31T06:19:06.633Z,58.97
2023-12-31T06:24:08.921Z,59.11
2023-12-31T06:29:11.249Z,59.79
2023-12-31T06:34:13.653Z,59.81
2023-12-31T06:39:15.859Z,59.43
2023-12-31T06:44:18.133Z,59.38
2023-12-31T06:49:20.378Z,59.47
2023-12-31T06:54:22.643Z,59.60
2023-12-31T06:59:24.974Z,59.68
2023-12-31T07:04:27.876Z,60.53
2023-12-31T07:09:30.113Z,61.10
2023-12-31T07:14:32.344Z,60.66
2023-12-31T07:19:34.636Z,60.55
2023-12-31T07:24:37.681Z,60.47
2023-12-31T07:29:39.874Z,60.57
2023-12-31T07:34:42.642Z,60.12
2023-12-31T07:39:44.945Z,60.47
2023-12-31T07:44:47.186Z,61.00
2023-12-31T07:49:49.511Z,61.06
2023-12-31T07:54:51.807Z,61.11
2023-12-31T07:59:54.098Z,60.83
2023-12-31T08:04:56.395Z,60.49
2023-12-31T08:09:58.666Z,60.19
2023-12-31T08:15:00.982Z,60.67
2023-12-31T08:20:03.854Z,61.31
2023-12-31T08:25:06.488Z,61.35
2023-12-31T08:30:09.808Z,61.22
2023-12-31T08:35:12.223Z,61.56
2023-12-31T08:40:15.822Z,61.92
2023-12-31T08:45:18.153Z,62.05
2023-12-31T08:50:20.582Z,61.74
2023-12-31T08:55:22.940Z,61.69
2023-12-31T09:00:25.224Z,61.62
2023-12-31T09:05:27.668Z,61.52
2023-12-31T09:10:30.345Z,61.84
2023-12-31T09:15:32.712Z,61.26
2023-12-31T09:20:35.436Z,60.76
2023-12-31T09:25:37.678Z,60.33
2023-12-31T09:30:39.959Z,59.66
2023-12-31T09:35:42.351Z,59.10
2023-12-31T09:40:45.332Z,58.48
2023-12-31T09:45:50.075Z,58.66
2023-12-31T09:50:52.779Z,58.83
2023-12-31T09:55:58.412Z,58.79
2023-12-31T10:01:00.727Z,58.52
2023-12-31T10:06:04.096Z,57.55
2023-12-31T10:11:07.663Z,57.34
2023-12-31T10:16:14.144Z,57.06
2023-12-31T10:21:16.470Z,57.84
2023-12-31T10:26:18.776Z,57.53
2023-12-31T10:31:21.055Z,57.41
2023-12-31T10:36:27.239Z,57.57
2023-12-31T10:41:30.463Z,57.40
2023-12-31T10:46:36.510Z,57.38
2023-12-31T10:51:43.544Z,57.18
2023-12-31T10:56:49.262Z,57.43
2023-12-31T11:01:51.857Z,57.13
2023-12-31T11:06:56.479Z,57.24
2023-12-31T11:11:59.194Z,56.92
2023-12-31T11:17:27.630Z,56.62
2023-12-31T11:22:47.722Z,56.40
2023-12-31T11:27:55.145Z,55.72
2023-12-31T11:32:57.378Z,55.98
2023-12-31T11:37:59.769Z,56.11
2023-12-31T11:43:11.144Z,56.25
2023-12-31T11:48:27.000Z,55.89
2023-12-31T11:53:31.674Z,55.59
2023-12-31T11:58:35.062Z,55.78
2023-12-31T12:03:37.414Z,56.04
2023-12-31T12:08:41.017Z,56.89
2023-12-31T12:13:45.675Z,57.54
2023-12-31T12:18:48.088Z,57.02
2023-12-31T12:23:50.414Z,57.15
2023-12-31T12:28:56.648Z,57.43
2023-12-31T12:33:59.112Z,58.01
2023-12-31T12:39:04.407Z,58.43
2023-12-31T12:44:09.181Z,58.23
2023-12-31T12:49:13.306Z,58.57
2023-12-31T12:54:16.564Z,58.10
2023-12-31T12:59:19.026Z,58.91
2023-12-31T13:04:21.945Z,58.64
2023-12-31T13:09:24.447Z,58.52
2023-12-31T13:14:27.486Z,58.28
2023-12-31T13:19:29.729Z,58.71
2023-12-31T13:24:31.984Z,58.68
2023-12-31T13:29:34.240Z,58.99
2023-12-31T13:34:36.926Z,58.90
2023-12-31T13:39:39.195Z,59.08
2023-12-31T13:44:46.289Z,59.30
2023-12-31T13:49:48.713Z,59.50
2023-12-31T13:54:51.439Z,59.76
2023-12-31T13:59:54.510Z,59.47
2023-12-31T14:04:57.849Z,59.15
2023-12-31T14:10:00.112Z,59.45
2023-12-31T14:15:02.412Z,59.95
2023-12-31T14:20:07.254Z,60.08
2023-12-31T14:25:10.638Z,60.20
2023-12-31T14:30:13.643Z,60.02
2023-12-31T14:35:16.003Z,60.04
2023-12-31T14:40:18.334Z,60.41
2023-12-31T14:45:20.579Z,60.69
2023-12-31T14:50:23.057Z,60.99
2023-12-31T14:55:25.448Z,60.56
2023-12-31T15:00:27.658Z,60.61
2023-12-31T15:05:30.750Z,61.08
2023-12-31T15:10:33.167Z,61.13
2023-12-31T15:15:37.039Z,61.49
2023-12-31T15:20:42.120Z,61.22
2023-12-31T15:25:44.904Z,60.85
2023-12-31T15:30:47.120Z,61.57
2023-12-31T15:35:51.988Z,61.83
2023-12-31T15:40:54.378Z,62.75
2023-12-31T15:45:56.831Z,62.74
2023-12-31T15:50:59.211Z,63.26
2023-12-31T15:56:01.699Z,63.24
2023-12-31T16:01:04.590Z,63.24
2023-12-31T16:06:08.614Z,63.52
2023-12-31T16:11:12.270Z,63.48
2023-12-31T16:16:14.546Z,63.02
2023-12-31T16:21:16.885Z,63.27
2023-12-31T16:26:21.488Z,63.40
2023-12-31T16:31:23.918Z,63.85
2023-12-31T16:36:30.239Z,63.44
2023-12-31T16:41:36.565Z,63.16
2023-12-31T16:46:39.021Z,63.70
2023-12-31T16:51:43.451Z,63.35
2023-12-31T16:56:45.948Z,63.67
2023-12-31T17:01:48.393Z,64.03
2023-12-31T17:06:50.941Z,63.85
2023-12-31T17:11:53.214Z,63.96
2023-12-31T17:16:55.781Z,64.01
2023-12-31T17:21:58.090Z,64.20
2023-12-31T17:27:00.792Z,64.22
2023-12-31T17:32:03.988Z,64.22
2023-12-31T17:37:10.752Z,64.36
2023-12-31T17:42:14.843Z,63.91
2023-12-31T17:47:17.056Z,64.48
2023-12-31T17:52:19.596Z,64.61
2023-12-31T17:57:21.782Z,64.45
2023-12-31T18:02:24.965Z,64.37
2023-12-31T18:07:27.263Z,63.98
2023-12-31T18:12:29.510Z,64.22
2023-12-31T18:17:32.127Z,64.61
2023-12-31T18:22:35.039Z,64.60
2023-12-31T18:27:38.441Z,64.23
2023-12-31T18:32:40.848Z,64.61
2023-12-31T18:37:43.277Z,64.27
2023-12-31T18:42:45.602Z,64.55
2023-12-31T18:47:48.180Z,64.45
2023-12-31T18:52:50.595Z,63.75
2023-12-31T18:57:52.821Z,63.61
2023-12-31T19:02:55.167Z,63.88
2023-12-31T19:07:57.387Z,64.09
2023-12-31T19:12:59.668Z,64.23
2023-12-31T19:18:02.565Z,64.00
2023-12-31T19:23:05.427Z,63.88
2023-12-31T19:28:07.884Z,63.75
2023-12-31T19:33:10.644Z,63.88
2023-12-31T19:38:13.298Z,63.86
2023-12-31T19:43:22.073Z,63.77
2023-12-31T19:48:32.666Z,63.93
2023-12-31T19:53:37.917Z,63.82
2023-12-31T19:58:40.649Z,63.93
2023-12-31T20:03:46.070Z,63.89
2023-12-31T20:08:48.407Z,63.67
2023-12-31T20:13:50.862Z,63.61
2023-12-31T20:18:53.366Z,63.38
2023-12-31T20:23:57.493Z,63.64
2023-12-31T20:28:59.960Z,63.36
2023-12-31T20:34:03.787Z,63.45
2023-12-31T20:39:06.600Z,63.19
2023-12-31T20:44:08.857Z,62.55
2023-12-31T20:49:11.194Z,63.09
2023-12-31T20:54:14.374Z,63.04
2023-12-31T20:59:16.530Z,62.37
2023-12-31T21:04:18.733Z,62.65
2023-12-31T21:09:21.107Z,62.54
2023-12-31T21:14:23.428Z,62.22
2023-12-31T21:19:25.800Z,62.14
2023-12-31T21:24:28.150Z,61.86
2023-12-31T21:29:30.759Z,61.48
2023-12-31T21:34:33.929Z,61.44
2023-12-31T21:39:36.211Z,61.98
2023-12-31T21:44:40.582Z,62.35
2023-12-31T21:49:42.924Z,62.09
2023-12-31T21:54:45.199Z,62.26
2023-12-31T21:59:47.456Z,61.93
2023-12-31T22:04:49.902Z,62.10
2023-12-31T22:09:54.498Z,62.50
2023-12-31T22:14:56.786Z,62.61
2023-12-31T22:19:59.247Z,63.05
2023-12-31T22:25:01.570Z,63.01
2023-12-31T22:30:04.428Z,63.12
2023-12-31T22:35:06.964Z,63.28
2023-12-31T22:40:10.750Z,63.44
2023-12-31T22:45:13.077Z,63.30
2023-12-31T22:50:15.381Z,63.06
2023-12-31T22:55:17.771Z,63.58
2023-12-31T23:00:20.697Z,63.56
2023-12-31T23:05:23.047Z,63.14
2023-12-31T23:10:25.363Z,63.05
2023-12-31T23:15:27.671Z,63.50
2023-12-31T23:20:30.023Z,63.39
2023-12-31T23:25:32.226Z,63.53
2023-12-31T23:30:34.572Z,64.18
2023-12-31T23:35:36.959Z,63.55
2023-12-31T23:40:39.177Z,63.92
2023-12-31T23:45:41.538Z,63.85
2023-12-31T23:50:43.740Z,64.17
2023-12-31T23:55:46.220Z,64.29
